sensor_id;sensor_type;location;lat;lon;timestamp;temperature;humidity
68844;DHT22;55850;51.244;6.824;2022-08-05T00:01:23;22.23;67.82
68844;DHT22;55850;51.244;6.824;2022-08-05T00:06:33;22.94;65.88
68844;DHT22;55850;51.244;6.824;2022-08-05T00:11:41;23.09;65.31
68844;DHT22;55850;51.244;6.824;2022-08-05T00:16:56;23.16;65.55
68844;DHT22;55850;51.244;6.824;2022-08-05T00:22:03;23.31;65.18
68844;DHT22;55850;51.244;6.824;2022-08-05T00:27:15;23.50;65.00
68844;DHT22;55850;51.244;6.824;2022-08-05T00:32:20;23.63;64.64
68844;DHT22;55850;51.244;6.824;2022-08-05T00:37:27;23.68;64.34
68844;DHT22;55850;51.244;6.824;2022-08-05T00:42:56;23.54;64.90
68844;DHT22;55850;51.244;6.824;2022-08-05T00:48:03;23.40;65.18
68844;DHT22;55850;51.244;6.824;2022-08-05T00:53:08;23.66;64.37
68844;DHT22;55850;51.244;6.824;2022-08-05T00:58:37;23.67;64.54
68844;DHT22;55850;51.244;6.824;2022-08-05T01:03:46;23.66;64.58
68844;DHT22;55850;51.244;6.824;2022-08-05T01:08:51;23.79;63.94
68844;DHT22;55850;51.244;6.824;2022-08-05T01:14:04;23.70;64.38
68844;DHT22;55850;51.244;6.824;2022-08-05T01:19:22;23.26;65.73
68844;DHT22;55850;51.244;6.824;2022-08-05T01:25:26;22.89;66.85
68844;DHT22;55850;51.244;6.824;2022-08-05T01:30:49;22.36;68.75
68844;DHT22;55850;51.244;6.824;2022-08-05T01:35:58;22.57;68.16
68844;DHT22;55850;51.244;6.824;2022-08-05T01:41:07;22.60;68.35
68844;DHT22;55850;51.244;6.824;2022-08-05T01:46:19;22.88;67.62
68844;DHT22;55850;51.244;6.824;2022-08-05T01:51:46;22.84;67.79
68844;DHT22;55850;51.244;6.824;2022-08-05T01:56:55;22.60;68.82
68844;DHT22;55850;51.244;6.824;2022-08-05T02:02:26;22.64;68.89
68844;DHT22;55850;51.244;6.824;2022-08-05T02:07:36;22.71;68.28
68844;DHT22;55850;51.244;6.824;2022-08-05T02:13:03;22.85;68.22
68844;DHT22;55850;51.244;6.824;2022-08-05T02:18:24;22.99;68.31
68844;DHT22;55850;51.244;6.824;2022-08-05T02:23:37;22.96;68.97
68844;DHT22;55850;51.244;6.824;2022-08-05T02:28:45;22.55;70.42
68844;DHT22;55850;51.244;6.824;2022-08-05T02:33:57;22.76;70.02
68844;DHT22;55850;51.244;6.824;2022-08-05T02:39:07;23.08;69.29
68844;DHT22;55850;51.244;6.824;2022-08-05T02:44:16;23.15;68.92
68844;DHT22;55850;51.244;6.824;2022-08-05T02:49:25;22.81;69.82
68844;DHT22;55850;51.244;6.824;2022-08-05T02:54:40;22.79;70.21
68844;DHT22;55850;51.244;6.824;2022-08-05T02:59:53;22.98;69.51
68844;DHT22;55850;51.244;6.824;2022-08-05T03:05:04;21.73;73.18
68844;DHT22;55850;51.244;6.824;2022-08-05T03:10:14;21.28;73.99
68844;DHT22;55850;51.244;6.824;2022-08-05T03:15:26;20.80;74.63
68844;DHT22;55850;51.244;6.824;2022-08-05T03:20:38;20.56;75.96
68844;DHT22;55850;51.244;6.824;2022-08-05T03:25:50;21.11;74.17
68844;DHT22;55850;51.244;6.824;2022-08-05T03:31:06;21.27;73.36
68844;DHT22;55850;51.244;6.824;2022-08-05T03:36:35;21.59;72.65
68844;DHT22;55850;51.244;6.824;2022-08-05T03:41:42;21.65;72.29
68844;DHT22;55850;51.244;6.824;2022-08-05T03:46:48;22.16;70.97
68844;DHT22;55850;51.244;6.824;2022-08-05T03:52:00;22.52;70.35
68844;DHT22;55850;51.244;6.824;2022-08-05T03:57:30;22.40;70.72
68844;DHT22;55850;51.244;6.824;2022-08-05T04:02:47;22.61;69.90
68844;DHT22;55850;51.244;6.824;2022-08-05T04:08:04;22.67;69.94
68844;DHT22;55850;51.244;6.824;2022-08-05T04:13:31;22.68;69.53
68844;DHT22;55850;51.244;6.824;2022-08-05T04:18:53;22.54;69.62
68844;DHT22;55850;51.244;6.824;2022-08-05T04:24:01;22.31;70.82
68844;DHT22;55850;51.244;6.824;2022-08-05T04:29:12;21.93;71.63
68844;DHT22;55850;51.244;6.824;2022-08-05T04:34:17;22.01;71.26
68844;DHT22;55850;51.244;6.824;2022-08-05T04:39:38;22.14;70.61
68844;DHT22;55850;51.244;6.824;2022-08-05T04:44:43;22.27;69.97
68844;DHT22;55850;51.244;6.824;2022-08-05T04:49:49;21.90;71.15
68844;DHT22;55850;51.244;6.824;2022-08-05T04:55:15;21.80;71.12
68844;DHT22;55850;51.244;6.824;2022-08-05T05:00:41;22.07;70.42
68844;DHT22;55850;51.244;6.824;2022-08-05T05:05:51;22.44;69.56
68844;DHT22;55850;51.244;6.824;2022-08-05T05:11:20;22.61;68.88
68844;DHT22;55850;51.244;6.824;2022-08-05T05:16:43;22.16;69.82
68844;DHT22;55850;51.244;6.824;2022-08-05T05:21:51;21.88;70.92
68844;DHT22;55850;51.244;6.824;2022-08-05T05:26:59;21.78;71.27
68844;DHT22;55850;51.244;6.824;2022-08-05T05:32:05;22.11;70.51
68844;DHT22;55850;51.244;6.824;2022-08-05T05:37:16;22.30;69.53
68844;DHT22;55850;51.244;6.824;2022-08-05T05:42:33;21.89;70.89
68844;DHT22;55850;51.244;6.824;2022-08-05T05:47:38;21.72;71.40
68844;DHT22;55850;51.244;6.824;2022-08-05T05:53:04;21.93;70.80
68844;DHT22;55850;51.244;6.824;2022-08-05T05:58:26;21.83;71.16
68844;DHT22;55850;51.244;6.824;2022-08-05T06:03:33;21.85;70.95
68844;DHT22;55850;51.244;6.824;2022-08-05T06:09:00;22.03;70.83
68844;DHT22;55850;51.244;6.824;2022-08-05T06:14:12;22.09;70.69
68844;DHT22;55850;51.244;6.824;2022-08-05T06:19:18;22.01;70.33
68844;DHT22;55850;51.244;6.824;2022-08-05T06:24:40;22.10;70.35
68844;DHT22;55850;51.244;6.824;2022-08-05T06:29:52;22.09;70.69
68844;DHT22;55850;51.244;6.824;2022-08-05T06:35:18;22.01;70.86
68844;DHT22;55850;51.244;6.824;2022-08-05T06:40:43;21.62;71.70
68844;DHT22;55850;51.244;6.824;2022-08-05T06:45:53;21.69;70.79
68844;DHT22;55850;51.244;6.824;2022-08-05T06:51:08;21.24;71.64
68844;DHT22;55850;51.244;6.824;2022-08-05T06:56:31;21.32;71.61
68844;DHT22;55850;51.244;6.824;2022-08-05T07:01:40;20.95;72.72
68844;DHT22;55850;51.244;6.824;2022-08-05T07:06:47;20.83;71.76
68844;DHT22;55850;51.244;6.824;2022-08-05T07:11:53;20.52;72.89
68844;DHT22;55850;51.244;6.824;2022-08-05T07:17:04;20.57;71.81
68844;DHT22;55850;51.244;6.824;2022-08-05T07:22:30;20.49;72.10
68844;DHT22;55850;51.244;6.824;2022-08-05T07:27:35;20.29;73.02
68844;DHT22;55850;51.244;6.824;2022-08-05T07:33:05;19.88;74.14
68844;DHT22;55850;51.244;6.824;2022-08-05T07:38:17;20.22;72.59
68844;DHT22;55850;51.244;6.824;2022-08-05T07:43:36;20.45;72.44
68844;DHT22;55850;51.244;6.824;2022-08-05T07:48:46;20.77;71.12
68844;DHT22;55850;51.244;6.824;2022-08-05T07:54:06;20.84;71.34
68844;DHT22;55850;51.244;6.824;2022-08-05T07:59:13;20.73;71.18
68844;DHT22;55850;51.244;6.824;2022-08-05T08:04:27;20.83;70.15
68844;DHT22;55850;51.244;6.824;2022-08-05T08:09:39;20.54;71.20
68844;DHT22;55850;51.244;6.824;2022-08-05T08:14:45;20.81;70.91
68844;DHT22;55850;51.244;6.824;2022-08-05T08:19:53;20.35;71.32
68844;DHT22;55850;51.244;6.824;2022-08-05T08:25:18;20.09;72.43
68844;DHT22;55850;51.244;6.824;2022-08-05T08:30:44;20.01;72.62
68844;DHT22;55850;51.244;6.824;2022-08-05T08:35:53;19.79;71.98
68844;DHT22;55850;51.244;6.824;2022-08-05T08:41:20;19.53;71.99
68844;DHT22;55850;51.244;6.824;2022-08-05T08:46:46;19.38;73.10
68844;DHT22;55850;51.244;6.824;2022-08-05T08:51:58;19.65;70.24
68844;DHT22;55850;51.244;6.824;2022-08-05T08:57:26;19.78;69.85
68844;DHT22;55850;51.244;6.824;2022-08-05T09:02:52;19.50;71.90
68844;DHT22;55850;51.244;6.824;2022-08-05T09:08:03;19.68;71.73
68844;DHT22;55850;51.244;6.824;2022-08-05T09:13:12;20.29;69.92
68844;DHT22;55850;51.244;6.824;2022-08-05T09:18:18;20.47;69.84
68844;DHT22;55850;51.244;6.824;2022-08-05T09:23:26;20.64;69.68
68844;DHT22;55850;51.244;6.824;2022-08-05T09:28:46;20.39;69.40
68844;DHT22;55850;51.244;6.824;2022-08-05T09:33:55;20.56;68.89
68844;DHT22;55850;51.244;6.824;2022-08-05T09:39:06;20.64;69.36
68844;DHT22;55850;51.244;6.824;2022-08-05T09:44:34;20.90;68.43
68844;DHT22;55850;51.244;6.824;2022-08-05T09:49:44;20.60;68.84
68844;DHT22;55850;51.244;6.824;2022-08-05T09:55:07;20.81;67.23
68844;DHT22;55850;51.244;6.824;2022-08-05T10:00:33;20.74;67.61
68844;DHT22;55850;51.244;6.824;2022-08-05T10:05:39;21.12;68.17
68844;DHT22;55850;51.244;6.824;2022-08-05T10:10:48;21.52;66.05
68844;DHT22;55850;51.244;6.824;2022-08-05T10:15:56;21.59;65.87
68844;DHT22;55850;51.244;6.824;2022-08-05T10:21:05;22.00;64.30
68844;DHT22;55850;51.244;6.824;2022-08-05T10:26:20;22.58;61.55
68844;DHT22;55850;51.244;6.824;2022-08-05T10:31:35;22.85;60.99
68844;DHT22;55850;51.244;6.824;2022-08-05T10:37:01;23.02;61.29
68844;DHT22;55850;51.244;6.824;2022-08-05T10:42:12;22.51;61.34
68844;DHT22;55850;51.244;6.824;2022-08-05T10:47:33;22.36;60.15
68844;DHT22;55850;51.244;6.824;2022-08-05T10:53:35;23.34;58.05
68844;DHT22;55850;51.244;6.824;2022-08-05T10:59:01;22.91;58.44
68844;DHT22;55850;51.244;6.824;2022-08-05T11:04:30;23.57;56.51
68844;DHT22;55850;51.244;6.824;2022-08-05T11:09:42;23.64;56.50
68844;DHT22;55850;51.244;6.824;2022-08-05T11:15:04;24.17;55.80
68844;DHT22;55850;51.244;6.824;2022-08-05T11:20:34;23.89;55.64
68844;DHT22;55850;51.244;6.824;2022-08-05T11:25:59;24.52;54.54
68844;DHT22;55850;51.244;6.824;2022-08-05T11:31:29;24.87;53.77
68844;DHT22;55850;51.244;6.824;2022-08-05T11:36:57;23.98;54.75
68844;DHT22;55850;51.244;6.824;2022-08-05T11:42:08;24.08;54.38
68844;DHT22;55850;51.244;6.824;2022-08-05T11:47:23;24.35;55.40
68844;DHT22;55850;51.244;6.824;2022-08-05T11:52:48;24.29;54.98
68844;DHT22;55850;51.244;6.824;2022-08-05T11:57:59;24.01;54.76
68844;DHT22;55850;51.244;6.824;2022-08-05T12:03:20;23.58;55.99
68844;DHT22;55850;51.244;6.824;2022-08-05T12:08:39;23.73;56.51
68844;DHT22;55850;51.244;6.824;2022-08-05T12:13:53;24.30;54.79
68844;DHT22;55850;51.244;6.824;2022-08-05T12:19:09;24.72;53.78
68844;DHT22;55850;51.244;6.824;2022-08-05T12:24:39;24.38;53.46
68844;DHT22;55850;51.244;6.824;2022-08-05T12:29:59;24.80;53.90
68844;DHT22;55850;51.244;6.824;2022-08-05T12:35:09;24.66;53.27
68844;DHT22;55850;51.244;6.824;2022-08-05T12:40:26;24.67;53.42
68844;DHT22;55850;51.244;6.824;2022-08-05T12:45:33;24.98;53.13
68844;DHT22;55850;51.244;6.824;2022-08-05T12:51:15;24.97;52.59
68844;DHT22;55850;51.244;6.824;2022-08-05T12:56:41;24.88;52.29
68844;DHT22;55850;51.244;6.824;2022-08-05T13:01:54;24.21;52.95
68844;DHT22;55850;51.244;6.824;2022-08-05T13:07:15;24.53;52.23
68844;DHT22;55850;51.244;6.824;2022-08-05T13:12:42;24.35;52.99
68844;DHT22;55850;51.244;6.824;2022-08-05T13:17:59;24.39;52.84
68844;DHT22;55850;51.244;6.824;2022-08-05T13:23:07;23.79;53.30
68844;DHT22;55850;51.244;6.824;2022-08-05T13:28:13;23.70;53.95
68844;DHT22;55850;51.244;6.824;2022-08-05T13:33:19;23.63;53.69
68844;DHT22;55850;51.244;6.824;2022-08-05T13:38:48;23.58;54.80
68844;DHT22;55850;51.244;6.824;2022-08-05T13:43:53;23.34;54.11
68844;DHT22;55850;51.244;6.824;2022-08-05T13:48:59;23.81;52.86
68844;DHT22;55850;51.244;6.824;2022-08-05T13:54:08;23.74;52.79
68844;DHT22;55850;51.244;6.824;2022-08-05T13:59:16;24.11;51.10
68844;DHT22;55850;51.244;6.824;2022-08-05T14:04:27;24.07;50.98
68844;DHT22;55850;51.244;6.824;2022-08-05T14:09:55;24.00;51.33
68844;DHT22;55850;51.244;6.824;2022-08-05T14:15:02;23.97;50.97
68844;DHT22;55850;51.244;6.824;2022-08-05T14:20:28;24.07;51.38
68844;DHT22;55850;51.244;6.824;2022-08-05T14:25:36;24.05;51.42
68844;DHT22;55850;51.244;6.824;2022-08-05T14:30:47;23.95;51.85
68844;DHT22;55850;51.244;6.824;2022-08-05T14:35:54;24.29;51.23
68844;DHT22;55850;51.244;6.824;2022-08-05T14:41:05;24.45;51.07
68844;DHT22;55850;51.244;6.824;2022-08-05T14:46:11;24.26;49.97
68844;DHT22;55850;51.244;6.824;2022-08-05T14:51:16;24.32;50.33
68844;DHT22;55850;51.244;6.824;2022-08-05T14:56:24;24.25;49.80
68844;DHT22;55850;51.244;6.824;2022-08-05T15:01:30;24.30;49.98
68844;DHT22;55850;51.244;6.824;2022-08-05T15:06:50;24.14;50.06
68844;DHT22;55850;51.244;6.824;2022-08-05T15:11:59;24.42;49.04
68844;DHT22;55850;51.244;6.824;2022-08-05T15:17:05;24.35;49.58
68844;DHT22;55850;51.244;6.824;2022-08-05T15:22:30;24.18;48.55
68844;DHT22;55850;51.244;6.824;2022-08-05T15:27:38;24.09;45.61
68844;DHT22;55850;51.244;6.824;2022-08-05T15:32:55;24.02;45.50
68844;DHT22;55850;51.244;6.824;2022-08-05T15:38:02;24.29;45.35
68844;DHT22;55850;51.244;6.824;2022-08-05T15:43:30;24.51;43.86
68844;DHT22;55850;51.244;6.824;2022-08-05T15:48:48;24.08;43.60
68844;DHT22;55850;51.244;6.824;2022-08-05T15:54:11;24.21;45.06
68844;DHT22;55850;51.244;6.824;2022-08-05T15:59:20;23.81;43.57
68844;DHT22;55850;51.244;6.824;2022-08-05T16:04:30;24.01;42.66
68844;DHT22;55850;51.244;6.824;2022-08-05T16:09:36;24.07;43.46
68844;DHT22;55850;51.244;6.824;2022-08-05T16:14:45;24.21;43.04
68844;DHT22;55850;51.244;6.824;2022-08-05T16:19:51;24.05;42.57
68844;DHT22;55850;51.244;6.824;2022-08-05T16:25:09;24.01;43.07
68844;DHT22;55850;51.244;6.824;2022-08-05T16:30:17;24.15;41.72
68844;DHT22;55850;51.244;6.824;2022-08-05T16:35:28;23.81;41.12
68844;DHT22;55850;51.244;6.824;2022-08-05T16:40:35;23.64;41.98
68844;DHT22;55850;51.244;6.824;2022-08-05T16:45:43;23.77;42.04
68844;DHT22;55850;51.244;6.824;2022-08-05T16:51:09;23.88;41.80
68844;DHT22;55850;51.244;6.824;2022-08-05T16:56:17;23.87;40.56
68844;DHT22;55850;51.244;6.824;2022-08-05T17:01:27;23.67;41.37
68844;DHT22;55850;51.244;6.824;2022-08-05T17:06:53;23.40;41.81
68844;DHT22;55850;51.244;6.824;2022-08-05T17:12:03;23.56;41.53
68844;DHT22;55850;51.244;6.824;2022-08-05T17:17:11;23.50;41.14
68844;DHT22;55850;51.244;6.824;2022-08-05T17:22:16;23.20;42.40
68844;DHT22;55850;51.244;6.824;2022-08-05T17:27:28;22.96;42.45
68844;DHT22;55850;51.244;6.824;2022-08-05T17:32:44;22.92;42.92
68844;DHT22;55850;51.244;6.824;2022-08-05T17:37:51;23.09;43.05
68844;DHT22;55850;51.244;6.824;2022-08-05T17:43:06;22.96;42.81
68844;DHT22;55850;51.244;6.824;2022-08-05T17:48:16;22.85;43.40
68844;DHT22;55850;51.244;6.824;2022-08-05T17:53:25;22.91;42.17
68844;DHT22;55850;51.244;6.824;2022-08-05T17:58:37;22.85;43.17
68844;DHT22;55850;51.244;6.824;2022-08-05T18:03:49;22.84;43.06
68844;DHT22;55850;51.244;6.824;2022-08-05T18:09:07;22.84;43.24
68844;DHT22;55850;51.244;6.824;2022-08-05T18:14:16;22.68;43.45
68844;DHT22;55850;51.244;6.824;2022-08-05T18:19:24;22.50;43.75
68844;DHT22;55850;51.244;6.824;2022-08-05T18:24:30;22.92;44.27
68844;DHT22;55850;51.244;6.824;2022-08-05T18:29:35;22.64;44.02
68844;DHT22;55850;51.244;6.824;2022-08-05T18:34:45;22.51;44.14
68844;DHT22;55850;51.244;6.824;2022-08-05T18:39:50;22.38;44.74
68844;DHT22;55850;51.244;6.824;2022-08-05T18:45:17;22.09;45.71
68844;DHT22;55850;51.244;6.824;2022-08-05T18:50:28;22.06;45.73
68844;DHT22;55850;51.244;6.824;2022-08-05T18:55:48;21.97;46.24
68844;DHT22;55850;51.244;6.824;2022-08-05T19:00:53;21.80;46.78
68844;DHT22;55850;51.244;6.824;2022-08-05T19:06:02;21.89;46.98
68844;DHT22;55850;51.244;6.824;2022-08-05T19:11:23;21.80;47.18
68844;DHT22;55850;51.244;6.824;2022-08-05T19:16:38;21.80;47.12
68844;DHT22;55850;51.244;6.824;2022-08-05T19:21:51;21.67;47.43
68844;DHT22;55850;51.244;6.824;2022-08-05T19:26:56;21.62;47.64
68844;DHT22;55850;51.244;6.824;2022-08-05T19:32:06;21.56;47.83
68844;DHT22;55850;51.244;6.824;2022-08-05T19:37:16;21.62;47.57
68844;DHT22;55850;51.244;6.824;2022-08-05T19:42:24;21.38;48.15
68844;DHT22;55850;51.244;6.824;2022-08-05T19:47:37;21.27;48.71
68844;DHT22;55850;51.244;6.824;2022-08-05T19:52:48;21.03;48.79
68844;DHT22;55850;51.244;6.824;2022-08-05T19:57:54;21.07;48.93
68844;DHT22;55850;51.244;6.824;2022-08-05T20:03:19;20.88;49.57
68844;DHT22;55850;51.244;6.824;2022-08-05T20:08:29;20.83;50.42
68844;DHT22;55850;51.244;6.824;2022-08-05T20:13:36;20.70;50.93
68844;DHT22;55850;51.244;6.824;2022-08-05T20:19:02;20.85;51.17
68844;DHT22;55850;51.244;6.824;2022-08-05T20:24:10;20.88;51.32
68844;DHT22;55850;51.244;6.824;2022-08-05T20:29:17;20.79;52.09
68844;DHT22;55850;51.244;6.824;2022-08-05T20:34:29;20.45;52.96
68844;DHT22;55850;51.244;6.824;2022-08-05T20:39:38;20.46;53.10
68844;DHT22;55850;51.244;6.824;2022-08-05T20:44:46;20.76;52.50
68844;DHT22;55850;51.244;6.824;2022-08-05T20:49:53;20.49;52.90
68844;DHT22;55850;51.244;6.824;2022-08-05T20:55:03;20.45;53.35
68844;DHT22;55850;51.244;6.824;2022-08-05T21:00:29;20.59;53.60
68844;DHT22;55850;51.244;6.824;2022-08-05T21:05:54;20.39;53.39
68844;DHT22;55850;51.244;6.824;2022-08-05T21:11:03;20.22;54.33
68844;DHT22;55850;51.244;6.824;2022-08-05T21:16:13;20.28;54.23
68844;DHT22;55850;51.244;6.824;2022-08-05T21:21:18;20.08;54.72
68844;DHT22;55850;51.244;6.824;2022-08-05T21:26:28;20.23;54.68
68844;DHT22;55850;51.244;6.824;2022-08-05T21:31:36;20.09;54.98
68844;DHT22;55850;51.244;6.824;2022-08-05T21:36:43;20.12;55.23
68844;DHT22;55850;51.244;6.824;2022-08-05T21:41:53;20.11;55.27
68844;DHT22;55850;51.244;6.824;2022-08-05T21:47:04;20.09;55.83
68844;DHT22;55850;51.244;6.824;2022-08-05T21:52:30;20.04;55.66
68844;DHT22;55850;51.244;6.824;2022-08-05T21:57:39;19.98;56.12
68844;DHT22;55850;51.244;6.824;2022-08-05T22:02:47;19.99;55.48
68844;DHT22;55850;51.244;6.824;2022-08-05T22:07:53;19.92;55.47
68844;DHT22;55850;51.244;6.824;2022-08-05T22:13:06;19.67;55.94
68844;DHT22;55850;51.244;6.824;2022-08-05T22:18:31;19.46;56.79
68844;DHT22;55850;51.244;6.824;2022-08-05T22:23:40;19.68;55.56
68844;DHT22;55850;51.244;6.824;2022-08-05T22:29:07;19.51;55.65
68844;DHT22;55850;51.244;6.824;2022-08-05T22:34:15;19.40;56.15
68844;DHT22;55850;51.244;6.824;2022-08-05T22:39:29;19.34;56.64
68844;DHT22;55850;51.244;6.824;2022-08-05T22:44:39;19.36;56.39
68844;DHT22;55850;51.244;6.824;2022-08-05T22:49:58;19.49;55.73
68844;DHT22;55850;51.244;6.824;2022-08-05T22:55:24;19.28;55.88
68844;DHT22;55850;51.244;6.824;2022-08-05T23:00:52;19.16;56.10
68844;DHT22;55850;51.244;6.824;2022-08-05T23:05:58;19.13;56.67
68844;DHT22;55850;51.244;6.824;2022-08-05T23:11:03;19.16;56.21
68844;DHT22;55850;51.244;6.824;2022-08-05T23:16:12;19.07;55.96
68844;DHT22;55850;51.244;6.824;2022-08-05T23:21:34;19.15;55.36
68844;DHT22;55850;51.244;6.824;2022-08-05T23:26:44;18.95;56.07
68844;DHT22;55850;51.244;6.824;2022-08-05T23:31:53;18.98;56.18
68844;DHT22;55850;51.244;6.824;2022-08-05T23:36:59;18.95;56.46
68844;DHT22;55850;51.244;6.824;2022-08-05T23:42:07;18.98;56.31
68844;DHT22;55850;51.244;6.824;2022-08-05T23:47:18;19.02;55.63
68844;DHT22;55850;51.244;6.824;2022-08-05T23:52:26;18.73;56.03
68844;DHT22;55850;51.244;6.824;2022-08-05T23:57:37;18.75;55.81
